Pagrindinis puslapis
METAR-TAF:

METAR-TAF

Oro uostai :

Rangūnas, Mianmaras

platuma: 16-46N, ilguma: 096-10E, Aukštis: 14 m

Dabartinis oras

Ataskaita buvo paskelbta 43 minutes, ne 18:30 UTC
Vėjas 4 kt iš Šiaurės Vakarų
Temperatūra 25°C
Drėgmė 89%
Slėgis 1012 hPa
Matomumas: 6000 m

METAR: VYYY 251830Z 32004KT 6000 NSC 25/23 Q1012 NOSIG

Laikas: 01:43 (19:13 UTC)

Prognozė

Ataskaita buvo paskelbta 2 valandos ir 13 minutes, ne 17:00 UTC
Prognozė galioja nuo 25 metu 18 UTC su 26 metu 18 UTC
Vėjas 7 kt iš Šiaurės
Matomumas: 8000 m
Išsisklaidę debesys ne aukštis 2000 ft
Tapsmas
nuo 25 metu 22 UTC su 26 metu 00 UTC
Vėjas 3 kt iš Šiaurės Rytų
Matomumas: 3000 m
rūkana
Laikinai
nuo 26 metu 06 UTC su 26 metu 12 UTC
Vėjas 8 kt iš Rytų/Šiaurės Rytų
Matomumas: 6000 m
Išsisklaidę debesys ne aukštis 2000 ft

TAF: VYYY 251700Z 2518/2618 35007KT 8000 SCT020 BECMG 2522/26000 04003KT 3000 BR TEMPO 2606/2612 07008KT 6000 SCT020

Orai ataskaitas ir orų prognozės (METAR, TAF).

turimą stotys yra geltonos ir raudonos taškus žemėlapyje.

Perkelti pele per norėdami pamatyti stoties vardą.

Tada spustelėkite, norėdami matyti oro stebėjimo ir prognozės.

Norėdami pakeisti žemėlapį: spustelėkite ant žalios mygtukų su juodo kryžiaus žemyn,; žalią mygtuką su brūkšneliu, jei norite nutolinti; arba žalių rodyklių gretimoms žemėlapius.


METAR-TAF: